createdAt,value
2022-11-16T00:02:12.719Z,94.23
2022-11-16T00:04:41.313Z,85.57
2022-11-16T00:07:11.583Z,88.43
2022-11-16T00:09:39.948Z,82.03
2022-11-16T00:12:11.404Z,94.67
2022-11-16T00:14:39.737Z,82.27
2022-11-16T00:17:08.043Z,97.03
2022-11-16T00:19:36.299Z,84.90
2022-11-16T00:22:04.661Z,88.13
2022-11-16T00:24:34.373Z,88.30
2022-11-16T00:27:02.655Z,82.83
2022-11-16T00:29:30.943Z,82.00
2022-11-16T00:31:59.188Z,84.47
2022-11-16T00:34:27.579Z,80.13
2022-11-16T00:36:55.911Z,82.00
2022-11-16T00:39:24.446Z,77.20
2022-11-16T00:41:54.142Z,74.73
2022-11-16T00:44:22.455Z,80.13
2022-11-16T00:46:50.708Z,83.43
2022-11-16T00:49:18.987Z,81.93
2022-11-16T00:51:47.257Z,79.03
2022-11-16T00:54:15.562Z,81.13
2022-11-16T00:56:44.105Z,85.67
2022-11-16T00:59:13.774Z,78.43
2022-11-16T01:01:42.165Z,80.83
2022-11-16T01:04:10.460Z,76.17
2022-11-16T01:06:38.728Z,82.13
2022-11-16T01:09:07.035Z,79.70
2022-11-16T01:11:52.471Z,67.90
2022-11-16T01:14:22.150Z,80.50
2022-11-16T01:16:51.451Z,71.93
2022-11-16T01:19:19.734Z,71.77
2022-11-16T01:21:48.043Z,72.53
2022-11-16T01:24:16.368Z,68.43
2022-11-16T01:26:44.666Z,77.20
2022-11-16T01:29:12.916Z,78.53
2022-11-16T01:31:42.705Z,75.20
2022-11-16T01:34:11.393Z,79.37
2022-11-16T01:36:39.711Z,80.63
2022-11-16T01:39:08.769Z,80.97
2022-11-16T01:41:37.076Z,80.83
2022-11-16T01:44:07.394Z,78.23
2022-11-16T01:46:35.673Z,90.50
2022-11-16T01:49:09.458Z,94.97
2022-11-16T01:51:39.267Z,83.07
2022-11-16T01:54:11.168Z,85.83
2022-11-16T01:56:41.025Z,84.80
2022-11-16T01:59:09.707Z,84.17
2022-11-16T02:01:38.042Z,91.33
2022-11-16T02:04:08.049Z,93.00
2022-11-16T02:06:48.740Z,90.00
2022-11-16T02:09:53.461Z,91.70
2022-11-16T02:12:51.596Z,84.60
2022-11-16T02:15:28.048Z,86.77
2022-11-16T02:18:09.259Z,93.63
2022-11-16T02:21:02.276Z,87.47
2022-11-16T02:24:00.659Z,84.70
2022-11-16T02:26:52.220Z,91.03
2022-11-16T02:29:24.951Z,91.93
2022-11-16T02:32:00.773Z,96.20
2022-11-16T02:34:32.986Z,94.70
2022-11-16T02:37:05.179Z,89.23
2022-11-16T02:39:35.161Z,91.13
2022-11-16T02:42:05.352Z,92.67
2022-11-16T02:44:37.971Z,95.17
2022-11-16T02:47:12.991Z,89.57
2022-11-16T02:49:46.255Z,95.00
2022-11-16T02:52:16.291Z,93.20
2022-11-16T02:54:44.288Z,92.40
2022-11-16T02:57:40.026Z,92.30
2022-11-16T03:00:13.366Z,91.83
2022-11-16T03:02:47.638Z,92.77
2022-11-16T03:05:20.227Z,85.90
2022-11-16T03:07:53.319Z,94.03
2022-11-16T03:10:36.810Z,94.13
2022-11-16T03:13:06.648Z,92.83
2022-11-16T03:15:39.290Z,98.23
2022-11-16T03:18:09.002Z,94.67
2022-11-16T03:20:39.821Z,89.47
2022-11-16T03:23:11.320Z,94.47
2022-11-16T03:25:46.511Z,94.60
2022-11-16T03:28:18.437Z,91.80
2022-11-16T03:30:53.163Z,95.27
2022-11-16T03:33:25.573Z,91.83
2022-11-16T03:36:00.194Z,93.80
2022-11-16T03:38:29.606Z,98.93
2022-11-16T03:41:01.450Z,104.97
2022-11-16T03:43:31.369Z,96.10
2022-11-16T03:46:00.951Z,95.30
2022-11-16T03:48:36.529Z,95.37
2022-11-16T03:51:05.654Z,97.77
2022-11-16T03:53:33.734Z,90.20
2022-11-16T03:56:01.683Z,86.67
2022-11-16T03:58:29.756Z,89.23
2022-11-16T04:00:57.822Z,82.57
2022-11-16T04:03:27.159Z,76.10
2022-11-16T04:06:12.805Z,83.17
2022-11-16T04:08:58.475Z,87.23
2022-11-16T04:11:44.004Z,87.63
2022-11-16T04:14:33.476Z,83.13
2022-11-16T04:17:19.078Z,84.87
2022-11-16T04:20:06.085Z,82.33
2022-11-16T04:22:58.771Z,93.90
2022-11-16T04:25:31.987Z,87.40
2022-11-16T04:28:14.124Z,84.77
2022-11-16T04:31:00.711Z,78.17
2022-11-16T04:33:47.129Z,77.77
2022-11-16T04:36:33.841Z,81.30
2022-11-16T04:39:01.930Z,83.57
2022-11-16T04:41:49.091Z,75.57
2022-11-16T04:44:17.060Z,72.47
2022-11-16T04:47:02.500Z,75.70
2022-11-16T04:49:30.592Z,79.07
2022-11-16T04:52:00.090Z,84.53
2022-11-16T04:54:28.061Z,72.60
2022-11-16T04:56:56.031Z,69.63
2022-11-16T04:59:24.044Z,72.53
2022-11-16T05:02:10.198Z,68.60
2022-11-16T05:04:39.282Z,68.53
2022-11-16T05:07:11.090Z,68.60
2022-11-16T05:09:42.672Z,76.30
2022-11-16T05:12:11.332Z,73.67
2022-11-16T05:14:39.303Z,80.90
2022-11-16T05:17:07.303Z,71.23
2022-11-16T05:19:52.863Z,75.80
2022-11-16T05:22:22.587Z,78.27
2022-11-16T05:24:50.559Z,74.07
2022-11-16T05:27:20.539Z,69.63
2022-11-16T05:29:50.087Z,71.37
2022-11-16T05:32:18.573Z,66.70
2022-11-16T05:34:46.964Z,76.73
2022-11-16T05:37:15.863Z,64.33
2022-11-16T05:39:45.341Z,66.10
2022-11-16T05:42:13.339Z,68.30
2022-11-16T05:44:41.287Z,63.43
2022-11-16T05:47:09.240Z,64.03
2022-11-16T05:49:37.213Z,65.50
2022-11-16T05:52:05.247Z,58.13
2022-11-16T05:54:33.242Z,59.13
2022-11-16T05:57:02.628Z,61.13
2022-11-16T05:59:30.839Z,62.50
2022-11-16T06:01:58.894Z,60.80
2022-11-16T06:04:27.534Z,69.00
2022-11-16T06:06:55.554Z,73.70
2022-11-16T06:09:23.542Z,65.53
2022-11-16T06:11:51.502Z,71.20
2022-11-16T06:14:20.885Z,70.87
2022-11-16T06:16:48.855Z,71.80
2022-11-16T06:19:16.893Z,65.33
2022-11-16T06:21:44.864Z,73.20
2022-11-16T06:24:12.907Z,70.50
2022-11-16T06:26:40.870Z,73.90
2022-11-16T06:29:08.846Z,75.80
2022-11-16T06:31:38.191Z,76.37
2022-11-16T06:34:06.145Z,72.43
2022-11-16T06:36:34.143Z,82.73
2022-11-16T06:39:02.222Z,83.77
2022-11-16T06:41:30.237Z,82.33
2022-11-16T06:43:58.172Z,77.47
2022-11-16T06:46:26.413Z,78.90
2022-11-16T06:48:57.110Z,85.40
2022-11-16T06:51:25.421Z,84.63
2022-11-16T06:53:53.412Z,87.97
2022-11-16T06:56:21.585Z,84.37
2022-11-16T06:58:53.319Z,93.07
2022-11-16T07:01:21.768Z,88.03
2022-11-16T07:03:49.761Z,91.33
2022-11-16T07:06:19.316Z,100.30
2022-11-16T07:08:47.404Z,98.83
2022-11-16T07:11:15.520Z,88.63
2022-11-16T07:13:43.583Z,89.37
2022-11-16T07:16:12.918Z,98.90
2022-11-16T07:18:42.732Z,91.90
2022-11-16T07:21:12.676Z,95.27
2022-11-16T07:23:42.330Z,84.17
2022-11-16T07:26:11.526Z,89.47
2022-11-16T07:28:43.486Z,86.23
2022-11-16T07:31:16.222Z,84.67
2022-11-16T07:33:44.282Z,85.53
2022-11-16T07:36:13.822Z,85.90
2022-11-16T07:38:43.477Z,82.77
2022-11-16T07:41:13.717Z,74.33
2022-11-16T07:43:41.825Z,85.57
2022-11-16T07:49:00.478Z,77.67
2022-11-16T07:51:28.586Z,70.83
2022-11-16T07:53:57.908Z,76.20
2022-11-16T07:56:26.489Z,77.57
2022-11-16T07:58:54.560Z,76.73
2022-11-16T08:01:22.992Z,80.27
2022-11-16T08:03:54.742Z,72.07
2022-11-16T08:06:26.351Z,66.77
2022-11-16T08:08:58.258Z,66.63
2022-11-16T08:11:28.242Z,68.10
2022-11-16T08:13:57.889Z,71.20
2022-11-16T08:16:25.858Z,69.70
2022-11-16T08:18:53.894Z,69.03
2022-11-16T08:21:21.884Z,68.03
2022-11-16T08:23:53.830Z,69.00
2022-11-16T08:26:24.898Z,66.63
2022-11-16T08:28:57.165Z,67.60
2022-11-16T08:31:26.946Z,72.67
2022-11-16T08:33:55.616Z,72.23
2022-11-16T08:36:23.576Z,74.53
2022-11-16T08:38:53.221Z,75.40
2022-11-16T08:41:21.944Z,79.10
2022-11-16T08:43:50.870Z,78.87
2022-11-16T08:46:20.773Z,78.60
2022-11-16T08:48:49.040Z,76.20
2022-11-16T08:51:20.200Z,84.77
2022-11-16T08:53:49.462Z,87.60
2022-11-16T08:56:19.169Z,105.23
2022-11-16T08:58:49.516Z,93.40
2022-11-16T09:01:24.274Z,103.70
2022-11-16T09:03:53.693Z,93.53
2022-11-16T09:06:22.448Z,115.47
2022-11-16T09:08:50.969Z,109.50
2022-11-16T09:11:21.040Z,96.17
2022-11-16T09:13:50.527Z,101.50
2022-11-16T09:16:20.820Z,93.43
2022-11-16T09:18:52.102Z,92.40
2022-11-16T09:21:21.338Z,93.30
2022-11-16T09:23:50.297Z,84.27
2022-11-16T09:26:21.319Z,96.27
2022-11-16T09:28:49.523Z,90.77
2022-11-16T09:31:21.972Z,92.40
2022-11-16T09:33:52.903Z,97.07
2022-11-16T09:36:21.468Z,95.93
2022-11-16T09:41:57.060Z,90.10
2022-11-16T09:44:43.800Z,87.90
2022-11-16T09:47:18.863Z,102.37
2022-11-16T09:49:55.702Z,98.80
2022-11-16T09:52:32.489Z,100.93
2022-11-16T09:55:06.221Z,103.53
2022-11-16T09:57:39.480Z,101.67
2022-11-16T10:00:16.715Z,96.23
2022-11-16T10:02:47.777Z,106.13
2022-11-16T10:05:22.547Z,103.80
2022-11-16T10:07:54.108Z,111.67
2022-11-16T10:10:33.198Z,110.17
2022-11-16T10:13:11.370Z,119.73
2022-11-16T10:15:50.913Z,114.40
2022-11-16T10:18:30.100Z,111.83
2022-11-16T10:21:24.642Z,101.80
2022-11-16T10:24:06.968Z,100.10
2022-11-16T10:26:42.933Z,104.27
2022-11-16T10:29:24.542Z,101.90
2022-11-16T10:32:04.222Z,111.07
2022-11-16T10:34:42.791Z,101.33
2022-11-16T10:37:15.174Z,94.60
2022-11-16T10:39:43.658Z,101.03
2022-11-16T10:42:20.243Z,89.13
2022-11-16T10:44:52.478Z,91.93
2022-11-16T10:47:25.359Z,86.67
2022-11-16T10:49:59.985Z,84.60
2022-11-16T10:52:29.580Z,98.73
2022-11-16T10:54:57.633Z,103.67
2022-11-16T10:57:26.539Z,110.33
2022-11-16T10:59:56.405Z,108.70
2022-11-16T11:02:34.616Z,115.17
2022-11-16T11:05:05.325Z,112.90
2022-11-16T11:07:37.738Z,113.77
2022-11-16T11:10:07.479Z,104.70
2022-11-16T11:12:41.349Z,116.03
2022-11-16T11:15:26.174Z,119.67
2022-11-16T11:18:13.693Z,119.77
2022-11-16T11:20:45.307Z,116.37
2022-11-16T11:23:17.532Z,126.13
2022-11-16T11:25:53.967Z,126.37
2022-11-16T11:28:26.281Z,130.77
2022-11-16T11:30:58.493Z,151.50
2022-11-16T11:33:33.550Z,139.60
2022-11-16T11:36:06.992Z,148.33
2022-11-16T11:38:57.550Z,147.77
2022-11-16T11:41:27.634Z,160.43
2022-11-16T11:44:03.877Z,147.30
2022-11-16T11:47:18.210Z,167.17
2022-11-16T11:49:33.874Z,162.33
2022-11-16T11:52:07.396Z,169.83
2022-11-16T11:54:45.930Z,130.47
2022-11-16T11:57:20.484Z,108.77
2022-11-16T11:59:49.336Z,73.63
2022-11-16T12:02:34.848Z,66.67
2022-11-16T12:05:28.578Z,49.83
2022-11-16T12:08:20.581Z,47.13
2022-11-16T12:10:52.962Z,40.60
2022-11-16T12:13:45.762Z,38.93
2022-11-16T12:16:19.861Z,41.87
2022-11-16T12:19:13.091Z,31.57
2022-11-16T12:21:50.548Z,31.47
2022-11-16T12:24:33.775Z,28.03
2022-11-16T12:27:17.384Z,29.77
2022-11-16T12:29:56.777Z,27.77
2022-11-16T12:32:48.852Z,25.80
2022-11-16T12:35:41.416Z,22.13
2022-11-16T12:38:31.247Z,21.40
2022-11-16T12:41:15.612Z,19.73
2022-11-16T12:43:53.348Z,19.77
2022-11-16T12:46:29.905Z,21.40
2022-11-16T12:49:18.244Z,17.27
2022-11-16T12:51:58.241Z,22.23
2022-11-16T12:55:04.367Z,17.20
2022-11-16T12:57:42.309Z,17.37
2022-11-16T13:00:14.024Z,17.13
2022-11-16T13:03:01.467Z,15.97
2022-11-16T13:05:44.578Z,14.77
2022-11-16T13:08:18.578Z,15.73
2022-11-16T13:10:51.770Z,14.20
2022-11-16T13:13:41.413Z,15.73
2022-11-16T13:16:11.528Z,13.70
2022-11-16T13:18:42.853Z,18.17
2022-11-16T13:21:21.997Z,15.83
2022-11-16T13:24:01.242Z,18.63
2022-11-16T13:26:35.863Z,15.73
2022-11-16T13:29:15.707Z,15.67
2022-11-16T13:31:53.556Z,15.53
2022-11-16T13:34:25.195Z,17.93
2022-11-16T13:36:53.271Z,15.73
2022-11-16T13:39:23.232Z,14.67
2022-11-16T13:41:52.711Z,14.87
2022-11-16T13:44:27.876Z,15.03
2022-11-16T13:47:04.272Z,12.57
2022-11-16T13:49:35.957Z,12.23
2022-11-16T13:52:22.493Z,15.13
2022-11-16T13:54:54.407Z,17.17
2022-11-16T13:57:26.828Z,17.33
2022-11-16T14:00:10.010Z,20.10
2022-11-16T14:02:41.011Z,14.50
2022-11-16T14:05:18.086Z,15.83
2022-11-16T14:07:49.668Z,17.20
2022-11-16T14:10:59.615Z,25.53
2022-11-16T14:13:42.255Z,17.83
2022-11-16T14:16:33.258Z,20.17
2022-11-16T14:19:04.124Z,17.90
2022-11-16T14:21:44.309Z,18.37
2022-11-16T14:24:26.376Z,20.90
2022-11-16T14:27:06.182Z,23.90
2022-11-16T14:29:50.212Z,22.30
2022-11-16T14:32:24.406Z,22.20
2022-11-16T14:34:56.555Z,25.17
2022-11-16T14:37:34.378Z,27.60
2022-11-16T14:40:07.625Z,21.43
2022-11-16T14:43:01.884Z,16.63
2022-11-16T14:45:37.105Z,16.87
2022-11-16T14:48:07.069Z,15.50
2022-11-16T14:50:40.839Z,15.93
2022-11-16T14:53:14.484Z,15.40
2022-11-16T14:55:44.066Z,14.23
2022-11-16T14:58:18.850Z,14.73
2022-11-16T15:00:54.791Z,14.73
2022-11-16T15:03:24.451Z,15.80
2022-11-16T15:05:57.455Z,15.97
2022-11-16T15:08:36.225Z,16.20
2022-11-16T15:11:04.322Z,18.80
2022-11-16T15:13:32.660Z,19.40
2022-11-16T15:16:11.340Z,14.23
2022-11-16T15:18:39.356Z,14.40
2022-11-16T15:21:22.886Z,13.30
2022-11-16T15:24:15.495Z,16.97
2022-11-16T15:26:40.164Z,20.97
2022-11-16T15:29:16.268Z,16.13
2022-11-16T15:31:45.655Z,14.90
2022-11-16T15:34:14.323Z,12.13
2022-11-16T15:36:43.774Z,13.83
2022-11-16T15:39:15.117Z,12.53
2022-11-16T15:41:43.882Z,13.97
2022-11-16T15:44:16.098Z,13.33
2022-11-16T15:46:47.128Z,15.50
2022-11-16T15:49:28.906Z,16.50
2022-11-16T15:51:59.271Z,15.83
2022-11-16T15:54:29.174Z,16.50
2022-11-16T15:56:58.795Z,17.37
2022-11-16T15:59:31.051Z,19.20
2022-11-16T16:01:59.343Z,21.70
2022-11-16T16:04:28.922Z,17.43
2022-11-16T16:07:00.051Z,20.43
2022-11-16T16:09:29.828Z,23.73
2022-11-16T16:12:17.162Z,30.80
2022-11-16T16:14:45.569Z,24.80
2022-11-16T16:17:23.981Z,22.03
2022-11-16T16:19:56.588Z,20.37
2022-11-16T16:22:29.835Z,24.60
2022-11-16T16:24:58.086Z,27.67
2022-11-16T16:27:27.519Z,18.97
2022-11-16T16:29:57.277Z,19.53
2022-11-16T16:32:27.517Z,16.60
2022-11-16T16:34:56.944Z,19.80
2022-11-16T16:37:27.983Z,19.63
2022-11-16T16:39:55.962Z,20.13
2022-11-16T16:42:24.066Z,20.33
2022-11-16T16:44:52.761Z,15.33
2022-11-16T16:47:21.627Z,16.07
2022-11-16T16:49:49.822Z,15.90
2022-11-16T16:52:18.570Z,18.63
2022-11-16T16:54:47.943Z,18.07
2022-11-16T16:57:16.989Z,18.87
2022-11-16T16:59:48.111Z,17.60
2022-11-16T17:02:16.584Z,18.83
2022-11-16T17:04:46.835Z,21.57
2022-11-16T17:07:15.078Z,22.20
2022-11-16T17:09:43.269Z,15.97
2022-11-16T17:12:12.585Z,19.70
2022-11-16T17:14:40.571Z,20.47
2022-11-16T17:17:08.767Z,15.47
2022-11-16T17:19:36.803Z,15.77
2022-11-16T17:22:04.776Z,16.97
2022-11-16T17:24:32.784Z,15.23
2022-11-16T17:27:00.748Z,15.47
2022-11-16T17:29:30.171Z,16.93
2022-11-16T17:31:58.107Z,21.33
2022-11-16T17:34:26.087Z,16.90
2022-11-16T17:36:55.515Z,19.90
2022-11-16T17:39:24.811Z,19.63
2022-11-16T17:41:53.022Z,20.63
2022-11-16T17:44:22.086Z,18.93
2022-11-16T17:46:51.687Z,20.77
2022-11-16T17:49:19.674Z,19.73
2022-11-16T17:51:47.621Z,20.30
2022-11-16T17:54:15.676Z,19.73
2022-11-16T17:56:43.608Z,14.47
2022-11-16T17:59:11.575Z,14.07
2022-11-16T18:01:39.678Z,14.83
2022-11-16T18:04:09.309Z,14.70
2022-11-16T18:06:37.689Z,14.13
2022-11-16T18:09:05.807Z,15.03
2022-11-16T18:11:33.826Z,14.30
2022-11-16T18:14:03.879Z,16.73
2022-11-16T18:16:33.263Z,14.77
2022-11-16T18:19:02.824Z,14.13
2022-11-16T18:21:33.775Z,13.33
2022-11-16T18:24:02.810Z,13.67
2022-11-16T18:26:30.791Z,13.53
2022-11-16T18:28:58.750Z,14.97
2022-11-16T18:31:27.157Z,20.37
2022-11-16T18:33:55.097Z,13.40
2022-11-16T18:36:23.521Z,15.17
2022-11-16T18:38:52.836Z,16.03
2022-11-16T18:41:23.537Z,13.83
2022-11-16T18:43:53.307Z,14.37
2022-11-16T18:46:22.713Z,13.03
2022-11-16T18:48:50.956Z,11.47
2022-11-16T18:51:20.136Z,14.70
2022-11-16T18:53:48.222Z,12.93
2022-11-16T18:56:17.959Z,14.00
2022-11-16T18:58:50.839Z,15.67
2022-11-16T19:01:21.895Z,12.93
2022-11-16T19:03:50.105Z,16.63
2022-11-16T19:06:18.362Z,13.73
2022-11-16T19:08:52.161Z,13.17
2022-11-16T19:11:24.939Z,10.37
2022-11-16T19:13:54.542Z,10.83
2022-11-16T19:16:23.220Z,10.13
2022-11-16T19:18:51.400Z,13.77
2022-11-16T19:21:20.175Z,14.33
2022-11-16T19:23:49.896Z,15.03
2022-11-16T19:26:20.548Z,17.90
2022-11-16T19:28:51.504Z,13.53
2022-11-16T19:31:21.073Z,10.80
2022-11-16T19:33:49.139Z,12.23
2022-11-16T19:36:18.978Z,13.00
2022-11-16T19:38:48.970Z,11.03
2022-11-16T19:41:20.184Z,12.60
2022-11-16T19:43:51.303Z,12.40
2022-11-16T19:46:21.420Z,13.23
2022-11-16T19:48:49.986Z,14.37
2022-11-16T19:51:21.241Z,17.97
2022-11-16T19:53:49.545Z,13.03
2022-11-16T19:56:19.027Z,11.43
2022-11-16T19:58:48.908Z,13.17
2022-11-16T20:01:19.042Z,11.97
2022-11-16T20:03:47.569Z,11.80
2022-11-16T20:06:17.315Z,12.40
2022-11-16T20:08:48.952Z,13.13
2022-11-16T20:11:20.278Z,12.17
2022-11-16T20:13:50.509Z,9.73
2022-11-16T20:16:20.147Z,10.80
2022-11-16T20:18:48.289Z,13.73
2022-11-16T20:21:20.321Z,13.30
2022-11-16T20:23:48.368Z,11.90
2022-11-16T20:26:16.384Z,13.90
2022-11-16T20:28:44.712Z,12.90
2022-11-16T20:31:15.718Z,11.17
2022-11-16T20:33:44.171Z,12.27
2022-11-16T20:36:12.982Z,15.90
2022-11-16T20:38:41.348Z,11.77
2022-11-16T20:41:11.047Z,10.53
2022-11-16T20:43:40.323Z,10.70
2022-11-16T20:46:09.041Z,11.90
2022-11-16T20:48:39.498Z,9.23
2022-11-16T20:51:08.661Z,8.27
2022-11-16T20:53:37.547Z,9.50
2022-11-16T20:56:07.673Z,9.70
2022-11-16T20:58:36.205Z,10.30
2022-11-16T21:01:05.877Z,8.50
2022-11-16T21:03:34.526Z,8.93
2022-11-16T21:06:04.151Z,8.63
2022-11-16T21:08:32.204Z,10.50
2022-11-16T21:11:00.194Z,9.53
2022-11-16T21:13:45.490Z,9.33
2022-11-16T21:16:15.391Z,9.53
2022-11-16T21:18:43.692Z,7.93
2022-11-16T21:21:14.820Z,9.27
2022-11-16T21:23:51.559Z,7.53
2022-11-16T21:26:21.490Z,7.97
2022-11-16T21:28:49.598Z,7.97
2022-11-16T21:31:19.413Z,9.47
2022-11-16T21:33:48.461Z,8.83
2022-11-16T21:36:19.439Z,7.90
2022-11-16T21:38:47.838Z,7.93
2022-11-16T21:41:17.718Z,8.93
2022-11-16T21:43:45.799Z,9.20
2022-11-16T21:46:15.376Z,6.70
2022-11-16T21:48:43.498Z,7.30
2022-11-16T21:51:12.682Z,6.53
2022-11-16T21:53:42.060Z,7.20
2022-11-16T21:56:14.076Z,6.83
2022-11-16T21:58:42.479Z,7.30
2022-11-16T22:01:11.941Z,10.77
2022-11-16T22:03:40.365Z,6.50
2022-11-16T22:06:42.043Z,10.77
2022-11-16T22:09:11.369Z,7.63
2022-11-16T22:14:25.530Z,10.97
2022-11-16T22:16:53.775Z,6.73
2022-11-16T22:19:22.040Z,7.80
2022-11-16T22:21:50.328Z,7.73
2022-11-16T22:24:20.022Z,6.40
2022-11-16T22:26:48.452Z,7.10
2022-11-16T22:29:16.739Z,7.00
2022-11-16T22:31:45.006Z,7.43
2022-11-16T22:34:13.278Z,6.00
2022-11-16T22:36:41.531Z,10.70
2022-11-16T22:39:10.086Z,6.77
2022-11-16T22:41:39.789Z,8.37
2022-11-16T22:44:08.077Z,7.53
2022-11-16T22:46:36.370Z,6.00
2022-11-16T22:49:04.666Z,6.67
2022-11-16T22:51:33.035Z,7.17
2022-11-16T22:54:02.969Z,6.33
2022-11-16T22:56:33.164Z,8.10
2022-11-16T22:59:05.442Z,6.80
2022-11-16T23:01:34.250Z,5.97
2022-11-16T23:04:02.898Z,6.93
2022-11-16T23:06:31.232Z,5.37
2022-11-16T23:08:59.647Z,7.63
2022-11-16T23:11:45.681Z,6.23
2022-11-16T23:14:34.197Z,6.97
2022-11-16T23:17:02.589Z,6.90
2022-11-16T23:19:48.573Z,5.80
2022-11-16T23:22:35.992Z,6.13
2022-11-16T23:25:22.148Z,6.17
2022-11-16T23:27:56.201Z,6.03
2022-11-16T23:30:26.444Z,6.33
2022-11-16T23:32:54.997Z,9.27
2022-11-16T23:35:24.070Z,6.93
2022-11-16T23:37:56.350Z,7.53
2022-11-16T23:40:26.066Z,7.03
2022-11-16T23:43:12.481Z,7.80
2022-11-16T23:45:43.372Z,6.90
2022-11-16T23:48:14.299Z,8.87
2022-11-16T23:50:42.806Z,11.30
2022-11-16T23:53:11.570Z,12.53
2022-11-16T23:55:41.046Z,11.30
2022-11-16T23:58:14.326Z,14.40
